Time;durP1;ratioP1;P1;durP2;ratioP2;P2;SDS_P1;SDS_P2;PMS_P1;PMS_P2;Temp;Humidity;BMP_temperature;BMP_pressure;BME280_temperature;BME280_humidity;BME280_pressure;Samples;Min_cycle;Max_cycle;Signal;HPM_P1;HPM_P2
2022/11/11 00:01:03;;;;;;;;;;;11.10;99.90;;;;;;5104129;28;20018;-74
2022/11/11 00:03:29;;;;;;;;;;;11.00;99.90;;;;;;5106175;28;19912;-74
2022/11/11 00:05:59;;;;;;;;;;;11.00;99.90;;;;;;5112535;28;19961;-73
2022/11/11 00:08:25;;;;;;;;;;;10.90;99.90;;;;;;5097299;28;19920;-74
2022/11/11 00:10:50;;;;;;;;;;;10.90;99.90;;;;;;5094865;28;19939;-74
2022/11/11 00:13:16;;;;;;;;;;;10.80;99.90;;;;;;5096715;28;20214;-74
2022/11/11 00:15:41;;;;;;;;;;;10.70;99.90;;;;;;5098460;28;20372;-73
2022/11/11 00:26:25;;;;;;;;;;;10.60;99.90;;;;;;5089427;28;19919;-73
2022/11/11 00:28:50;;;;;;;;;;;10.50;99.90;;;;;;5092501;28;19916;-74
2022/11/11 00:31:16;;;;;;;;;;;10.50;99.90;;;;;;5086408;28;19920;-74
2022/11/11 00:33:41;;;;;;;;;;;10.50;99.90;;;;;;5094107;28;19912;-73
2022/11/11 00:36:07;;;;;;;;;;;10.50;99.90;;;;;;5098472;28;19908;-72
2022/11/11 00:38:45;;;;;;;;;;;10.40;99.90;;;;;;5079685;28;20227;-74
2022/11/11 00:41:11;;;;;;;;;;;10.40;99.90;;;;;;5090082;28;20204;-75
2022/11/11 00:43:37;;;;;;;;;;;10.40;99.90;;;;;;5093796;28;19912;-74
2022/11/11 00:51:31;;;;;;;;;;;10.30;99.90;;;;;;5081387;28;19923;-74
2022/11/11 00:53:57;;;;;;;;;;;10.40;99.90;;;;;;5101110;28;19908;-74
2022/11/11 00:56:23;;;;;;;;;;;10.40;99.90;;;;;;5104494;28;19914;-74
2022/11/11 00:58:49;;;;;;;;;;;10.30;99.90;;;;;;5097197;28;19923;-74
2022/11/11 01:01:15;;;;;;;;;;;10.30;99.90;;;;;;5072034;28;20022;-74
2022/11/11 01:03:40;;;;;;;;;;;10.30;99.90;;;;;;5097848;28;19916;-74
2022/11/11 01:06:06;;;;;;;;;;;10.20;99.90;;;;;;5108877;28;19912;-74
2022/11/11 01:08:32;;;;;;;;;;;10.20;99.90;;;;;;5096291;28;19920;-74
2022/11/11 01:10:57;;;;;;;;;;;10.20;99.90;;;;;;5072830;28;19920;-74
2022/11/11 01:13:25;;;;;;;;;;;10.20;99.90;;;;;;5108138;28;19907;-74
2022/11/11 01:15:52;;;;;;;;;;;10.30;99.90;;;;;;5096331;28;20226;-75
2022/11/11 01:18:22;;;;;;;;;;;10.30;99.90;;;;;;5095630;28;19916;-74
2022/11/11 01:20:56;;;;;;;;;;;10.20;99.90;;;;;;5095337;28;19916;-73
2022/11/11 01:23:22;;;;;;;;;;;10.20;99.90;;;;;;5060327;28;19912;-74
2022/11/11 01:25:48;;;;;;;;;;;10.20;99.90;;;;;;5084450;28;20393;-73
2022/11/11 01:28:13;;;;;;;;;;;10.20;99.90;;;;;;5096387;28;19912;-77
2022/11/11 01:30:39;;;;;;;;;;;10.20;99.90;;;;;;5091237;28;19922;-78
2022/11/11 01:33:04;;;;;;;;;;;10.10;99.90;;;;;;5093502;28;19912;-74
2022/11/11 01:35:30;;;;;;;;;;;10.10;99.90;;;;;;5094630;28;20262;-74
2022/11/11 01:37:58;;;;;;;;;;;10.10;99.90;;;;;;5077888;28;19908;-74
2022/11/11 01:40:23;;;;;;;;;;;10.10;99.90;;;;;;5090516;28;21876;-74
2022/11/11 01:42:50;;;;;;;;;;;10.10;99.90;;;;;;5086724;28;19916;-73
2022/11/11 01:45:34;;;;;;;;;;;10.10;99.90;;;;;;5078675;28;19915;-73
2022/11/11 01:50:44;;;;;;;;;;;10.10;99.90;;;;;;5091569;28;20242;-74
2022/11/11 01:53:09;;;;;;;;;;;10.10;99.90;;;;;;5075607;28;19912;-74
2022/11/11 01:55:35;;;;;;;;;;;10.10;99.90;;;;;;5076635;28;20210;-74
2022/11/11 01:58:03;;;;;;;;;;;10.10;99.90;;;;;;5093680;28;20318;-73
2022/11/11 02:00:29;;;;;;;;;;;10.10;99.90;;;;;;5092050;28;20210;-77
2022/11/11 02:03:00;;;;;;;;;;;10.10;99.90;;;;;;5091189;28;19916;-73
2022/11/11 02:05:42;;;;;;;;;;;10.10;99.90;;;;;;5094511;28;19915;-74
2022/11/11 02:08:12;;;;;;;;;;;10.10;99.90;;;;;;5092260;28;19912;-74
2022/11/11 02:10:40;;;;;;;;;;;10.10;99.90;;;;;;5092198;28;20261;-75
2022/11/11 02:15:59;;;;;;;;;;;10.20;99.90;;;;;;5086611;28;19918;-73
2022/11/11 02:18:25;;;;;;;;;;;10.20;99.90;;;;;;5098624;28;19916;-74
2022/11/11 02:20:50;;;;;;;;;;;10.10;99.90;;;;;;5066115;28;19924;-74
2022/11/11 02:23:21;;;;;;;;;;;10.10;99.90;;;;;;5094470;28;20246;-74
2022/11/11 02:25:47;;;;;;;;;;;10.10;99.90;;;;;;5086088;28;19966;-74
2022/11/11 02:28:14;;;;;;;;;;;10.20;99.90;;;;;;5088753;28;20219;-74
2022/11/11 02:30:39;;;;;;;;;;;10.10;99.90;;;;;;5090252;28;19947;-74
2022/11/11 02:33:05;;;;;;;;;;;10.00;99.90;;;;;;5095685;28;19963;-74
2022/11/11 02:35:32;;;;;;;;;;;10.10;99.90;;;;;;5080246;28;20429;-77
2022/11/11 02:37:58;;;;;;;;;;;10.10;99.90;;;;;;5097613;28;20307;-75
2022/11/11 02:40:31;;;;;;;;;;;10.10;99.90;;;;;;5072100;28;19928;-74
2022/11/11 02:42:57;;;;;;;;;;;10.00;99.90;;;;;;5093838;28;19912;-74
2022/11/11 02:45:23;;;;;;;;;;;10.00;99.90;;;;;;5096415;28;19933;-74
2022/11/11 02:47:48;;;;;;;;;;;10.00;99.90;;;;;;5079394;28;20315;-74
2022/11/11 02:50:14;;;;;;;;;;;10.00;99.90;;;;;;5084819;28;19916;-74
2022/11/11 02:52:40;;;;;;;;;;;9.90;99.90;;;;;;5108548;28;20985;-75
2022/11/11 02:55:05;;;;;;;;;;;9.90;99.90;;;;;;5104514;28;19912;-73
2022/11/11 02:57:31;;;;;;;;;;;10.00;99.90;;;;;;5107477;28;19919;-74
2022/11/11 02:59:58;;;;;;;;;;;10.00;99.90;;;;;;5100485;28;19913;-74
2022/11/11 03:02:26;;;;;;;;;;;9.90;99.90;;;;;;5108866;28;19916;-78
2022/11/11 03:04:55;;;;;;;;;;;10.00;99.90;;;;;;5080161;28;19922;-74
2022/11/11 03:07:22;;;;;;;;;;;10.00;99.90;;;;;;5103998;28;19916;-74
2022/11/11 03:09:47;;;;;;;;;;;9.90;99.90;;;;;;5108626;28;19985;-74
2022/11/11 03:12:13;;;;;;;;;;;10.00;99.90;;;;;;5090292;28;19954;-74
2022/11/11 03:14:39;;;;;;;;;;;10.00;99.90;;;;;;5105421;28;19965;-74
2022/11/11 03:19:48;;;;;;;;;;;10.10;99.90;;;;;;5108440;28;20328;-75
2022/11/11 03:22:14;;;;;;;;;;;10.10;99.90;;;;;;5106202;28;19923;-75
2022/11/11 03:27:24;;;;;;;;;;;10.10;99.90;;;;;;5088340;28;19919;-74
2022/11/11 03:29:49;;;;;;;;;;;10.10;99.90;;;;;;5095888;28;21113;-74
2022/11/11 03:32:15;;;;;;;;;;;10.10;99.90;;;;;;5088090;28;20311;-74
2022/11/11 03:34:40;;;;;;;;;;;10.10;99.90;;;;;;5096165;28;20333;-75
2022/11/11 03:39:51;;;;;;;;;;;10.10;99.90;;;;;;5091924;28;19935;-76
2022/11/11 03:42:17;;;;;;;;;;;10.10;99.90;;;;;;5095337;28;19912;-74
2022/11/11 03:44:42;;;;;;;;;;;10.10;99.90;;;;;;5076154;28;19930;-75
2022/11/11 03:47:08;;;;;;;;;;;10.10;99.90;;;;;;5095197;28;19912;-74
2022/11/11 03:49:34;;;;;;;;;;;10.10;99.90;;;;;;5072479;28;19924;-74
2022/11/11 03:51:59;;;;;;;;;;;10.10;99.90;;;;;;5096374;28;19912;-75
2022/11/11 03:54:25;;;;;;;;;;;10.10;99.90;;;;;;5095837;28;19912;-75
2022/11/11 03:56:50;;;;;;;;;;;10.00;99.90;;;;;;5078074;28;19951;-75
2022/11/11 03:59:16;;;;;;;;;;;10.00;99.90;;;;;;5069590;28;19935;-75
2022/11/11 04:18:08;;;;;;;;;;;10.00;99.90;;;;;;5108554;28;20344;-74
2022/11/11 04:23:25;;;;;;;;;;;10.00;99.90;;;;;;5090370;28;19916;-74
2022/11/11 04:25:52;;;;;;;;;;;10.00;99.90;;;;;;5107344;28;19922;-74
2022/11/11 04:31:02;;;;;;;;;;;9.90;99.90;;;;;;5104882;28;19997;-74
2022/11/11 04:33:27;;;;;;;;;;;9.90;99.90;;;;;;5092718;28;19912;-75
2022/11/11 04:35:53;;;;;;;;;;;9.90;99.90;;;;;;5095080;28;19908;-75
2022/11/11 04:41:03;;;;;;;;;;;10.00;99.90;;;;;;5091516;28;19926;-74
2022/11/11 04:43:29;;;;;;;;;;;10.00;99.90;;;;;;5109705;28;19912;-74
2022/11/11 04:45:58;;;;;;;;;;;10.00;99.90;;;;;;5094755;28;19930;-74
2022/11/11 04:48:23;;;;;;;;;;;10.00;99.90;;;;;;5091963;28;19916;-74
2022/11/11 04:50:49;;;;;;;;;;;10.00;99.90;;;;;;5097795;28;20348;-75
2022/11/11 04:53:14;;;;;;;;;;;10.00;99.90;;;;;;5099025;28;19908;-74
2022/11/11 04:58:26;;;;;;;;;;;10.00;99.90;;;;;;5092774;28;19919;-74
2022/11/11 05:00:52;;;;;;;;;;;10.10;99.90;;;;;;5098293;28;19926;-74
2022/11/11 05:03:19;;;;;;;;;;;10.10;99.90;;;;;;5099953;28;19908;-73
2022/11/11 05:11:14;;;;;;;;;;;10.10;99.90;;;;;;5094475;28;20310;-75
2022/11/11 05:21:56;;;;;;;;;;;10.10;99.90;;;;;;5098434;28;19989;-73
2022/11/11 05:27:06;;;;;;;;;;;10.00;99.90;;;;;;5091361;28;20210;-74
2022/11/11 05:29:32;;;;;;;;;;;10.10;99.90;;;;;;5095039;28;19911;-74
2022/11/11 05:31:57;;;;;;;;;;;10.10;99.90;;;;;;5092925;28;20241;-77
2022/11/11 05:34:23;;;;;;;;;;;10.10;99.90;;;;;;5098754;28;20358;-74
2022/11/11 05:36:48;;;;;;;;;;;10.10;99.90;;;;;;5085420;28;19985;-74
2022/11/11 05:39:14;;;;;;;;;;;10.10;99.90;;;;;;5097904;28;19955;-75
2022/11/11 05:41:39;;;;;;;;;;;10.10;99.90;;;;;;5100861;28;20011;-74
2022/11/11 05:44:05;;;;;;;;;;;10.10;99.90;;;;;;5103967;28;20002;-74
2022/11/11 05:46:30;;;;;;;;;;;10.10;99.90;;;;;;5096895;28;19921;-74
2022/11/11 05:49:14;;;;;;;;;;;10.10;99.90;;;;;;5098343;28;19940;-74
2022/11/11 05:51:39;;;;;;;;;;;10.10;99.90;;;;;;5096005;28;19923;-73
2022/11/11 05:54:05;;;;;;;;;;;10.00;99.90;;;;;;5094671;28;19908;-74
2022/11/11 05:56:30;;;;;;;;;;;10.10;99.90;;;;;;5085815;28;19915;-74
2022/11/11 05:58:56;;;;;;;;;;;10.10;99.90;;;;;;5095005;28;20207;-73
2022/11/11 06:01:22;;;;;;;;;;;10.00;99.90;;;;;;5093045;28;19939;-75
2022/11/11 06:03:47;;;;;;;;;;;10.10;99.90;;;;;;5094220;28;20177;-73
2022/11/11 06:06:13;;;;;;;;;;;10.00;99.90;;;;;;5093067;28;19912;-74
2022/11/11 06:08:38;;;;;;;;;;;10.00;99.90;;;;;;5094126;28;19913;-73
2022/11/11 06:11:04;;;;;;;;;;;10.00;99.90;;;;;;5093674;28;19916;-74
2022/11/11 06:13:30;;;;;;;;;;;10.00;99.90;;;;;;5093027;28;19920;-75
2022/11/11 06:15:56;;;;;;;;;;;10.00;99.90;;;;;;5088492;28;19927;-73
2022/11/11 06:18:21;;;;;;;;;;;10.00;99.90;;;;;;5087727;28;19919;-74
2022/11/11 06:20:56;;;;;;;;;;;10.00;99.90;;;;;;5084850;28;19961;-74
2022/11/11 06:23:22;;;;;;;;;;;9.90;99.90;;;;;;5095875;28;19912;-74
2022/11/11 06:28:33;;;;;;;;;;;9.90;99.90;;;;;;5092397;28;19919;-74
2022/11/11 06:30:58;;;;;;;;;;;9.90;99.90;;;;;;5085376;28;20469;-74
2022/11/11 06:33:24;;;;;;;;;;;9.90;99.90;;;;;;5103677;28;19920;-75
2022/11/11 06:35:50;;;;;;;;;;;9.90;99.90;;;;;;5091597;28;19922;-75
2022/11/11 06:38:15;;;;;;;;;;;9.90;99.90;;;;;;5090172;28;19982;-74
2022/11/11 06:40:41;;;;;;;;;;;9.90;99.90;;;;;;5114713;28;19966;-75
2022/11/11 06:43:07;;;;;;;;;;;10.00;99.90;;;;;;5101159;28;20231;-74
2022/11/11 06:45:34;;;;;;;;;;;10.00;99.90;;;;;;5076056;28;20294;-75
2022/11/11 06:48:00;;;;;;;;;;;10.00;99.90;;;;;;5105748;28;19908;-74
2022/11/11 06:50:27;;;;;;;;;;;10.00;99.90;;;;;;5060956;28;19939;-74
2022/11/11 06:52:53;;;;;;;;;;;10.00;99.90;;;;;;5104219;28;19961;-74
2022/11/11 06:55:19;;;;;;;;;;;10.00;99.90;;;;;;5099883;28;19916;-74
2022/11/11 06:57:44;;;;;;;;;;;10.00;99.90;;;;;;5088862;28;19912;-75
2022/11/11 07:00:10;;;;;;;;;;;10.00;99.90;;;;;;5095293;28;19934;-73
2022/11/11 07:02:36;;;;;;;;;;;9.90;99.90;;;;;;5111615;28;19923;-73
2022/11/11 07:05:01;;;;;;;;;;;9.90;99.90;;;;;;5101802;28;19957;-73
2022/11/11 07:07:27;;;;;;;;;;;9.90;99.90;;;;;;5091197;28;19908;-73
2022/11/11 07:09:54;;;;;;;;;;;9.90;99.90;;;;;;5117987;28;19919;-74
2022/11/11 07:12:20;;;;;;;;;;;9.90;99.90;;;;;;5118525;28;19958;-74
2022/11/11 07:14:45;;;;;;;;;;;9.90;99.90;;;;;;5113748;28;19948;-74
2022/11/11 07:17:11;;;;;;;;;;;9.90;99.90;;;;;;5089692;28;20301;-73
2022/11/11 07:19:37;;;;;;;;;;;9.90;99.90;;;;;;5101512;28;19957;-75
2022/11/11 07:22:02;;;;;;;;;;;10.00;99.90;;;;;;5110241;28;19954;-74
2022/11/11 07:24:28;;;;;;;;;;;10.00;99.90;;;;;;5111792;28;19908;-74
2022/11/11 07:26:53;;;;;;;;;;;9.90;99.90;;;;;;5098031;28;20676;-73
2022/11/11 07:29:19;;;;;;;;;;;10.00;99.90;;;;;;5075364;28;20311;-77
2022/11/11 07:31:44;;;;;;;;;;;10.00;99.90;;;;;;5113498;28;20040;-75
2022/11/11 07:34:10;;;;;;;;;;;10.00;99.90;;;;;;5102098;28;19908;-74
2022/11/11 07:36:35;;;;;;;;;;;10.00;99.90;;;;;;5096527;28;19912;-79
2022/11/11 07:39:01;;;;;;;;;;;10.10;99.90;;;;;;5084612;28;19923;-75
2022/11/11 07:41:27;;;;;;;;;;;10.00;99.90;;;;;;5099647;28;20060;-74
2022/11/11 07:43:52;;;;;;;;;;;10.00;99.90;;;;;;5105115;28;19912;-74
2022/11/11 07:46:18;;;;;;;;;;;10.00;99.90;;;;;;5087748;28;19916;-74
2022/11/11 07:48:43;;;;;;;;;;;10.00;99.90;;;;;;5105959;28;20283;-75
2022/11/11 07:51:09;;;;;;;;;;;10.10;99.90;;;;;;5104860;28;19916;-75
2022/11/11 07:53:35;;;;;;;;;;;10.00;99.90;;;;;;5108408;28;19985;-74
2022/11/11 07:56:00;;;;;;;;;;;10.10;99.90;;;;;;5083286;28;19946;-73
2022/11/11 07:58:26;;;;;;;;;;;10.10;99.90;;;;;;5092850;28;20278;-74
2022/11/11 08:00:51;;;;;;;;;;;10.00;99.90;;;;;;5086974;28;20350;-74
2022/11/11 08:03:17;;;;;;;;;;;10.10;99.90;;;;;;5107815;28;20309;-74
2022/11/11 08:05:42;;;;;;;;;;;10.00;99.90;;;;;;5111675;28;19912;-74
2022/11/11 08:08:08;;;;;;;;;;;10.00;99.90;;;;;;5089024;28;19954;-74
2022/11/11 08:10:34;;;;;;;;;;;10.00;99.90;;;;;;5108126;28;19951;-74
2022/11/11 08:13:45;;;;;;;;;;;10.00;99.90;;;;;;5095338;28;20290;-73
2022/11/11 08:15:46;;;;;;;;;;;10.00;99.90;;;;;;5093037;28;19926;-74
2022/11/11 08:18:11;;;;;;;;;;;10.00;99.90;;;;;;5106456;28;20007;-75
2022/11/11 08:20:37;;;;;;;;;;;10.10;99.90;;;;;;5098913;28;20358;-74
2022/11/11 08:23:03;;;;;;;;;;;10.00;99.90;;;;;;5110253;28;19968;-73
2022/11/11 08:25:32;;;;;;;;;;;10.00;99.90;;;;;;5113388;28;19912;-74
2022/11/11 08:27:58;;;;;;;;;;;10.00;99.90;;;;;;5089246;28;19911;-74
2022/11/11 08:30:24;;;;;;;;;;;10.10;99.90;;;;;;5105524;28;19927;-74
2022/11/11 08:32:57;;;;;;;;;;;10.10;99.90;;;;;;5111823;28;19916;-74
2022/11/11 08:35:22;;;;;;;;;;;10.10;99.90;;;;;;5109928;28;20317;-73
2022/11/11 08:37:48;;;;;;;;;;;10.20;99.90;;;;;;5109669;28;19907;-74
2022/11/11 08:40:14;;;;;;;;;;;10.20;99.90;;;;;;5108469;28;20309;-74
2022/11/11 08:42:41;;;;;;;;;;;10.20;99.90;;;;;;5097402;28;19923;-72
2022/11/11 08:45:06;;;;;;;;;;;10.30;99.90;;;;;;5092675;28;19912;-74
2022/11/11 08:47:32;;;;;;;;;;;10.30;99.90;;;;;;5112414;28;19915;-74
2022/11/11 08:49:58;;;;;;;;;;;10.30;99.90;;;;;;5110075;28;19918;-74
2022/11/11 08:52:23;;;;;;;;;;;10.30;99.90;;;;;;5085630;28;19912;-73
2022/11/11 08:54:49;;;;;;;;;;;10.30;99.90;;;;;;5108346;28;19935;-74
2022/11/11 08:57:14;;;;;;;;;;;10.40;99.90;;;;;;5111307;28;19907;-73
2022/11/11 08:59:40;;;;;;;;;;;10.40;99.90;;;;;;5107745;28;20001;-73
2022/11/11 09:02:08;;;;;;;;;;;10.40;99.90;;;;;;5086718;28;19916;-74
2022/11/11 09:04:34;;;;;;;;;;;10.40;99.90;;;;;;5109564;28;19956;-73
2022/11/11 09:06:59;;;;;;;;;;;10.40;99.90;;;;;;5094178;28;19912;-74
2022/11/11 09:09:25;;;;;;;;;;;10.40;99.90;;;;;;5086929;28;20003;-74
2022/11/11 09:11:50;;;;;;;;;;;10.40;99.90;;;;;;5108756;28;20332;-74
2022/11/11 09:14:16;;;;;;;;;;;10.30;99.90;;;;;;5110218;28;19911;-78
2022/11/11 09:16:41;;;;;;;;;;;10.40;99.90;;;;;;5106148;28;19911;-74
2022/11/11 09:19:07;;;;;;;;;;;10.40;99.90;;;;;;5105802;28;19924;-74
2022/11/11 09:21:32;;;;;;;;;;;10.40;99.90;;;;;;5083257;28;20277;-74
2022/11/11 09:23:59;;;;;;;;;;;10.40;99.90;;;;;;5087791;28;20299;-74
2022/11/11 09:26:25;;;;;;;;;;;10.50;99.90;;;;;;5073056;28;19919;-74
2022/11/11 09:28:50;;;;;;;;;;;10.50;99.90;;;;;;5095333;28;19908;-74
2022/11/11 09:31:16;;;;;;;;;;;10.40;99.90;;;;;;5088875;28;20010;-74
2022/11/11 09:33:41;;;;;;;;;;;10.50;99.90;;;;;;5109979;28;19908;-74
2022/11/11 09:36:07;;;;;;;;;;;10.50;99.90;;;;;;5113042;28;19911;-74
2022/11/11 09:38:32;;;;;;;;;;;10.50;99.90;;;;;;5111764;28;19951;-75
2022/11/11 09:40:58;;;;;;;;;;;10.50;99.90;;;;;;5096529;28;21147;-74
2022/11/11 09:43:34;;;;;;;;;;;10.50;99.90;;;;;;5099160;28;20190;-73
2022/11/11 09:46:07;;;;;;;;;;;10.50;99.90;;;;;;5103934;28;20330;-74
2022/11/11 09:48:49;;;;;;;;;;;10.50;99.90;;;;;;5090598;28;20216;-74
2022/11/11 09:51:22;;;;;;;;;;;10.50;99.90;;;;;;5086697;28;20363;-76
2022/11/11 09:53:57;;;;;;;;;;;10.50;99.90;;;;;;5093042;28;19908;-74
2022/11/11 09:56:24;;;;;;;;;;;10.50;99.90;;;;;;5094330;28;19923;-73
2022/11/11 09:58:52;;;;;;;;;;;10.60;99.90;;;;;;5097474;28;20214;-72
2022/11/11 10:01:24;;;;;;;;;;;10.50;99.90;;;;;;5105492;28;19916;-74
2022/11/11 10:04:10;;;;;;;;;;;10.50;99.90;;;;;;5095330;28;19912;-74
2022/11/11 10:06:36;;;;;;;;;;;10.50;99.90;;;;;;5081086;28;19908;-74
2022/11/11 10:09:05;;;;;;;;;;;10.50;99.90;;;;;;5095170;28;19909;-74
2022/11/11 10:11:33;;;;;;;;;;;10.50;99.90;;;;;;5095527;28;19977;-75
2022/11/11 10:13:59;;;;;;;;;;;10.50;99.90;;;;;;5096167;28;19991;-74
2022/11/11 10:16:36;;;;;;;;;;;10.40;99.90;;;;;;5098173;28;20355;-74
2022/11/11 10:19:02;;;;;;;;;;;10.50;99.90;;;;;;5097115;28;19961;-74
2022/11/11 10:21:36;;;;;;;;;;;10.50;99.90;;;;;;5099248;28;19919;-73
2022/11/11 10:24:05;;;;;;;;;;;10.50;99.90;;;;;;5076398;28;20351;-74
2022/11/11 10:26:30;;;;;;;;;;;10.50;99.90;;;;;;5099848;28;19953;-73
2022/11/11 10:28:57;;;;;;;;;;;10.60;99.90;;;;;;5094876;28;19912;-73
2022/11/11 10:31:22;;;;;;;;;;;10.60;99.90;;;;;;5099041;28;19948;-74
2022/11/11 10:33:51;;;;;;;;;;;10.60;99.90;;;;;;5092995;28;19920;-73
2022/11/11 10:36:17;;;;;;;;;;;10.60;99.90;;;;;;5090716;28;19912;-74
2022/11/11 10:38:49;;;;;;;;;;;10.70;99.90;;;;;;5102012;28;19912;-74
2022/11/11 10:41:18;;;;;;;;;;;10.70;99.90;;;;;;5089998;28;19924;-74
2022/11/11 10:43:45;;;;;;;;;;;10.70;99.90;;;;;;5093465;28;20012;-74
2022/11/11 10:46:21;;;;;;;;;;;10.70;99.90;;;;;;5106400;28;21517;-74
2022/11/11 10:48:46;;;;;;;;;;;10.80;99.90;;;;;;5105868;28;19918;-75
2022/11/11 10:51:13;;;;;;;;;;;10.80;99.90;;;;;;5101922;28;19908;-75
2022/11/11 10:53:41;;;;;;;;;;;10.90;99.90;;;;;;5100250;28;20313;-74
2022/11/11 10:56:07;;;;;;;;;;;10.90;99.90;;;;;;5104146;28;19909;-73
2022/11/11 10:58:42;;;;;;;;;;;10.90;99.90;;;;;;5082991;28;20324;-74
2022/11/11 11:01:12;;;;;;;;;;;10.90;99.90;;;;;;5088403;28;19916;-73
2022/11/11 11:03:41;;;;;;;;;;;10.90;99.90;;;;;;5104467;28;19916;-74
2022/11/11 11:06:12;;;;;;;;;;;11.00;99.90;;;;;;5098149;28;19977;-74
2022/11/11 11:08:43;;;;;;;;;;;11.00;99.90;;;;;;5090537;28;19953;-75
2022/11/11 11:11:18;;;;;;;;;;;11.10;99.90;;;;;;5098722;28;19912;-74
2022/11/11 11:13:46;;;;;;;;;;;11.10;99.90;;;;;;5096501;28;20309;-75
2022/11/11 11:16:17;;;;;;;;;;;11.10;99.90;;;;;;5098327;28;19912;-74
2022/11/11 11:18:43;;;;;;;;;;;11.10;99.90;;;;;;5098815;28;19920;-74
2022/11/11 11:21:09;;;;;;;;;;;11.10;99.90;;;;;;5082802;28;19916;-74
2022/11/11 11:23:36;;;;;;;;;;;11.20;99.90;;;;;;5096333;28;19916;-73
2022/11/11 11:26:03;;;;;;;;;;;11.20;99.90;;;;;;5104589;28;19920;-73
2022/11/11 11:28:29;;;;;;;;;;;11.20;99.90;;;;;;5105722;28;20026;-74
2022/11/11 11:31:05;;;;;;;;;;;11.30;99.90;;;;;;5105941;28;20058;-74
2022/11/11 11:33:49;;;;;;;;;;;11.20;99.90;;;;;;5100154;28;20311;-75
2022/11/11 11:36:15;;;;;;;;;;;11.30;99.90;;;;;;5104172;28;19923;-74
2022/11/11 11:38:42;;;;;;;;;;;11.30;99.90;;;;;;5107330;28;19919;-75
2022/11/11 11:41:08;;;;;;;;;;;11.20;99.90;;;;;;5107450;28;19973;-74
2022/11/11 11:43:35;;;;;;;;;;;11.20;99.90;;;;;;5104207;28;19995;-74
2022/11/11 11:46:02;;;;;;;;;;;11.20;99.90;;;;;;5107256;28;19916;-74
2022/11/11 11:48:30;;;;;;;;;;;11.20;99.90;;;;;;5103591;28;19954;-74
2022/11/11 11:51:16;;;;;;;;;;;11.30;99.90;;;;;;5095782;28;20015;-76
2022/11/11 11:53:48;;;;;;;;;;;11.30;99.90;;;;;;5075168;28;19920;-74
2022/11/11 11:56:18;;;;;;;;;;;11.40;99.90;;;;;;5103131;28;19916;-74
2022/11/11 11:58:43;;;;;;;;;;;11.40;99.90;;;;;;5107661;28;19908;-74
2022/11/11 12:01:16;;;;;;;;;;;11.50;99.90;;;;;;5105346;28;19923;-74
2022/11/11 12:03:45;;;;;;;;;;;11.40;99.90;;;;;;5085025;28;20068;-75
2022/11/11 12:06:33;;;;;;;;;;;11.40;99.90;;;;;;5096267;28;19908;-74
2022/11/11 12:09:18;;;;;;;;;;;11.40;99.90;;;;;;5095877;28;19931;-74
2022/11/11 12:12:12;;;;;;;;;;;11.50;99.90;;;;;;5091937;28;20014;-74
2022/11/11 12:14:47;;;;;;;;;;;11.50;99.90;;;;;;5082559;28;19918;-74
2022/11/11 12:17:12;;;;;;;;;;;11.40;99.90;;;;;;5091624;28;20230;-74
2022/11/11 12:19:43;;;;;;;;;;;11.40;99.90;;;;;;5101413;28;19911;-74
2022/11/11 12:22:27;;;;;;;;;;;11.40;99.90;;;;;;5108656;28;19912;-74
2022/11/11 12:25:12;;;;;;;;;;;11.30;99.90;;;;;;5088862;28;19981;-75
2022/11/11 12:27:56;;;;;;;;;;;11.30;99.90;;;;;;5106351;28;20257;-73
2022/11/11 12:30:28;;;;;;;;;;;11.40;99.90;;;;;;5110240;28;20528;-74
2022/11/11 12:33:05;;;;;;;;;;;11.40;99.90;;;;;;5102747;28;20303;-74
2022/11/11 12:35:33;;;;;;;;;;;11.40;99.90;;;;;;5103899;28;19950;-76
2022/11/11 12:38:31;;;;;;;;;;;11.40;99.90;;;;;;5102043;28;20358;-74
2022/11/11 12:41:14;;;;;;;;;;;11.60;99.90;;;;;;5065111;28;20022;-74
2022/11/11 12:43:53;;;;;;;;;;;11.60;99.90;;;;;;5107394;28;19962;-73
2022/11/11 12:46:27;;;;;;;;;;;11.70;99.90;;;;;;5084650;28;19920;-74
2022/11/11 12:48:53;;;;;;;;;;;11.80;99.90;;;;;;5078634;28;19931;-73
2022/11/11 12:51:38;;;;;;;;;;;11.80;99.90;;;;;;5104182;28;19915;-74
2022/11/11 12:54:16;;;;;;;;;;;11.90;99.90;;;;;;5087065;28;19948;-73
2022/11/11 12:56:54;;;;;;;;;;;11.90;99.90;;;;;;5091370;28;19916;-74
2022/11/11 12:59:38;;;;;;;;;;;11.90;99.90;;;;;;5099154;28;19916;-75
2022/11/11 13:02:19;;;;;;;;;;;12.00;99.90;;;;;;5059895;28;19916;-76
2022/11/11 13:04:51;;;;;;;;;;;12.00;99.90;;;;;;5041574;28;19913;-75
2022/11/11 13:07:27;;;;;;;;;;;11.90;99.90;;;;;;5086697;28;19914;-75
2022/11/11 13:10:12;;;;;;;;;;;11.90;99.90;;;;;;5092844;28;19912;-75
2022/11/11 13:12:56;;;;;;;;;;;12.00;99.90;;;;;;5078812;28;19908;-76
2022/11/11 13:15:23;;;;;;;;;;;12.00;99.90;;;;;;5096248;28;19918;-75
2022/11/11 13:17:48;;;;;;;;;;;12.00;99.90;;;;;;5098340;28;19959;-75
2022/11/11 13:20:23;;;;;;;;;;;12.10;99.90;;;;;;5089930;28;19963;-75
2022/11/11 13:22:49;;;;;;;;;;;12.10;99.90;;;;;;5099744;28;19919;-75
2022/11/11 13:25:19;;;;;;;;;;;12.20;99.90;;;;;;5079513;28;20307;-76
2022/11/11 13:27:50;;;;;;;;;;;12.20;99.90;;;;;;5082817;28;19912;-75
2022/11/11 13:30:33;;;;;;;;;;;12.30;99.90;;;;;;5094338;28;19991;-75
2022/11/11 13:33:08;;;;;;;;;;;12.30;99.90;;;;;;5102010;28;19920;-76
2022/11/11 13:35:45;;;;;;;;;;;12.30;99.90;;;;;;5106319;28;19907;-75
2022/11/11 13:38:20;;;;;;;;;;;12.30;99.90;;;;;;5086159;28;20292;-76
2022/11/11 13:40:50;;;;;;;;;;;12.40;99.90;;;;;;5099955;28;20041;-76
2022/11/11 13:43:17;;;;;;;;;;;12.40;99.90;;;;;;5084853;28;19950;-75
2022/11/11 13:45:49;;;;;;;;;;;12.50;99.90;;;;;;5102229;28;19916;-76
2022/11/11 13:48:26;;;;;;;;;;;12.50;99.90;;;;;;5070678;28;19927;-75
2022/11/11 13:50:53;;;;;;;;;;;12.60;99.90;;;;;;5088251;28;19912;-77
2022/11/11 13:53:24;;;;;;;;;;;12.50;99.90;;;;;;5077747;28;19920;-74
2022/11/11 13:55:51;;;;;;;;;;;12.50;99.90;;;;;;5105507;28;19931;-75
2022/11/11 13:58:25;;;;;;;;;;;12.50;99.90;;;;;;5107027;28;19912;-74
2022/11/11 14:00:58;;;;;;;;;;;12.40;99.90;;;;;;5099771;28;19915;-77
2022/11/11 14:03:24;;;;;;;;;;;12.30;99.90;;;;;;5070180;28;20040;-75
2022/11/11 14:06:09;;;;;;;;;;;12.30;99.90;;;;;;5098078;28;20338;-75
2022/11/11 14:08:55;;;;;;;;;;;12.30;99.90;;;;;;5076420;28;19912;-75
2022/11/11 14:11:24;;;;;;;;;;;12.40;99.90;;;;;;5099636;28;19990;-75
2022/11/11 14:13:50;;;;;;;;;;;12.30;99.90;;;;;;5078808;28;20326;-74
2022/11/11 14:16:34;;;;;;;;;;;12.30;99.90;;;;;;5082288;28;20440;-74
2022/11/11 14:19:11;;;;;;;;;;;12.30;99.90;;;;;;5100293;28;20354;-75
2022/11/11 14:21:46;;;;;;;;;;;12.30;99.90;;;;;;5098842;28;19915;-75
2022/11/11 14:24:21;;;;;;;;;;;12.30;99.90;;;;;;5066148;28;19959;-75
2022/11/11 14:26:56;;;;;;;;;;;12.20;99.90;;;;;;5102958;28;19912;-75
2022/11/11 14:29:33;;;;;;;;;;;12.10;99.90;;;;;;5109608;28;19951;-75
2022/11/11 14:32:08;;;;;;;;;;;12.10;99.90;;;;;;5109650;28;19919;-74
2022/11/11 15:02:37;;;;;;;20.35;11.15;;;11.90;99.90;;;;;;5118016;27;20419;-75
2022/11/11 15:05:09;;;;;;;20.25;11.25;;;11.80;99.90;;;;;;5122691;28;20366;-75
2022/11/11 15:07:55;;;;;;;21.23;11.07;;;11.80;99.90;;;;;;5125018;27;20094;-77
2022/11/11 15:10:24;;;;;;;18.60;9.63;;;11.80;99.90;;;;;;5112875;28;20031;-75
2022/11/11 15:12:50;;;;;;;27.02;12.63;;;11.80;99.90;;;;;;5122866;27;20026;-75
2022/11/11 15:15:21;;;;;;;29.00;13.47;;;11.70;99.90;;;;;;5124627;28;20020;-75
2022/11/11 15:18:04;;;;;;;25.60;11.15;;;11.70;99.90;;;;;;5126616;28;20104;-75
2022/11/11 15:20:51;;;;;;;21.20;9.82;;;11.70;99.90;;;;;;5121960;28;20016;-75
2022/11/11 15:23:37;;;;;;;19.13;9.52;;;11.60;99.90;;;;;;5122597;28;20039;-75
2022/11/11 15:26:36;;;;;;;18.45;8.80;;;11.60;99.90;;;;;;5125156;27;20034;-75
2022/11/11 15:29:12;;;;;;;19.80;8.75;;;11.50;99.90;;;;;;5102716;28;20119;-75
2022/11/11 15:31:50;;;;;;;19.13;7.82;;;11.40;99.90;;;;;;5107150;28;20046;-75
2022/11/11 15:34:28;;;;;;;15.65;8.50;;;11.40;99.90;;;;;;5107415;28;20020;-77
2022/11/11 15:37:13;;;;;;;18.50;8.00;;;11.30;99.90;;;;;;5107522;28;20016;-75
2022/11/11 15:39:50;;;;;;;17.05;8.27;;;11.20;99.90;;;;;;5102631;28;20024;-76
2022/11/11 15:42:27;;;;;;;14.63;7.13;;;11.10;99.90;;;;;;5095984;28;20027;-75
2022/11/11 15:44:53;;;;;;;;;;;11.00;99.90;;;;;;5101163;28;20020;-75
2022/11/11 15:47:21;;;;;;;12.83;7.10;;;11.00;99.90;;;;;;5093088;28;19998;-75
2022/11/11 15:49:48;;;;;;;11.20;5.80;;;11.00;99.90;;;;;;5096167;28;20040;-75
2022/11/11 15:52:24;;;;;;;14.55;6.35;;;10.90;99.90;;;;;;5096659;28;20020;-75
2022/11/11 15:54:51;;;;;;;17.23;6.68;;;10.80;99.90;;;;;;5095827;28;20036;-75
2022/11/11 15:57:27;;;;;;;15.70;6.65;;;10.80;99.90;;;;;;5096956;28;20119;-75
2022/11/11 16:00:30;;;;;;;14.27;5.47;;;10.70;99.90;;;;;;5090038;28;20047;-75
2022/11/11 16:02:57;;;;;;;15.13;5.63;;;10.60;99.90;;;;;;5076991;28;20050;-75